Time;durP1;ratioP1;P1;durP2;ratioP2;P2;SDS_P1;SDS_P2;PMS_P1;PMS_P2;Temp;Humidity;BMP_temperature;BMP_pressure;BME280_temperature;BME280_humidity;BME280_pressure;Samples;Min_cycle;Max_cycle;Signal;HPM_P1;HPM_P2
2023/10/05 00:01:27;;;;;;;5.10;2.08;;;13.70;99.90;;;;;;5006197;28;20213;-64
2023/10/05 00:03:56;;;;;;;8.10;1.60;;;13.80;99.90;;;;;;5012573;28;20201;-64
2023/10/05 00:06:27;;;;;;;6.80;1.45;;;13.80;99.90;;;;;;4987805;28;20210;-64
2023/10/05 00:08:56;;;;;;;4.63;1.58;;;13.80;99.90;;;;;;5004943;28;20227;-64
2023/10/05 00:11:29;;;;;;;9.07;1.55;;;13.80;99.90;;;;;;4985959;28;20224;-64
2023/10/05 00:13:57;;;;;;;4.03;1.30;;;13.70;99.90;;;;;;5010771;28;20681;-64
2023/10/05 00:16:36;;;;;;;1.52;1.15;;;13.80;99.90;;;;;;5011883;28;20233;-64
2023/10/05 00:19:05;;;;;;;4.43;1.40;;;13.70;99.90;;;;;;5017215;28;20198;-64
2023/10/05 00:21:35;;;;;;;6.18;1.45;;;13.70;99.90;;;;;;5012731;28;20201;-64
2023/10/05 00:24:06;;;;;;;8.63;1.98;;;13.70;99.90;;;;;;5006171;28;20201;-64
2023/10/05 00:26:33;;;;;;;2.83;1.40;;;13.70;99.90;;;;;;4990218;28;20213;-64
2023/10/05 00:29:06;;;;;;;4.38;1.67;;;13.60;99.90;;;;;;5009345;28;20605;-64
2023/10/05 00:31:38;;;;;;;6.20;1.58;;;13.70;99.90;;;;;;5020071;28;21036;-64
2023/10/05 00:34:08;;;;;;;3.92;1.67;;;13.70;99.90;;;;;;5019275;28;20241;-64
2023/10/05 00:36:39;;;;;;;7.68;2.03;;;13.70;99.90;;;;;;5013244;28;20197;-64
2023/10/05 00:39:09;;;;;;;5.72;2.25;;;13.50;99.90;;;;;;5001197;28;20201;-64
2023/10/05 00:41:36;;;;;;;3.97;1.52;;;13.80;99.90;;;;;;5023030;28;20206;-64
2023/10/05 00:44:04;;;;;;;3.38;1.30;;;13.80;99.90;;;;;;4985332;28;20225;-64
2023/10/05 00:46:32;;;;;;;7.07;1.50;;;13.70;99.90;;;;;;5018450;28;20201;-64
2023/10/05 00:49:04;;;;;;;5.72;1.65;;;13.70;99.90;;;;;;5020768;28;20209;-64
2023/10/05 00:51:34;;;;;;;2.97;1.27;;;13.70;99.90;;;;;;4993213;28;20236;-63
2023/10/05 00:54:11;;;;;;;3.65;1.58;;;12.90;99.90;;;;;;5004866;28;20343;-64
2023/10/05 00:56:41;;;;;;;3.75;1.40;;;14.10;99.90;;;;;;5018498;28;20544;-64
2023/10/05 00:59:11;;;;;;;10.95;2.55;;;13.70;99.90;;;;;;4988810;28;20228;-64
2023/10/05 01:02:00;;;;;;;5.40;1.90;;;13.70;99.90;;;;;;5017907;28;20203;-64
2023/10/05 01:04:34;;;;;;;5.03;1.88;;;13.70;99.90;;;;;;5023985;28;20197;-63
2023/10/05 01:07:17;;;;;;;3.55;1.40;;;13.90;99.90;;;;;;5010039;28;20220;-64
2023/10/05 01:10:07;;;;;;;7.05;1.33;;;13.70;99.90;;;;;;5013254;28;20846;-64
2023/10/05 01:12:37;;;;;;;2.40;1.48;;;13.70;99.90;;;;;;5022451;28;20198;-64
2023/10/05 01:15:06;;;;;;;5.57;1.95;;;13.70;99.90;;;;;;4974847;28;21078;-64
2023/10/05 01:17:35;;;;;;;7.90;1.63;;;13.70;99.90;;;;;;5020616;28;21022;-64
2023/10/05 01:20:12;;;;;;;6.53;1.90;;;13.70;99.90;;;;;;5015513;28;20212;-72
2023/10/05 01:22:40;;;;;;;4.47;1.58;;;13.70;99.90;;;;;;5016705;28;20286;-64
2023/10/05 01:25:12;;;;;;;2.92;1.40;;;13.40;99.90;;;;;;5011796;28;20205;-64
2023/10/05 01:27:38;;;;;;;6.50;1.45;;;13.70;99.90;;;;;;5009680;28;20205;-63
2023/10/05 01:30:07;;;;;;;3.90;1.60;;;13.70;99.90;;;;;;4993642;28;20710;-64
2023/10/05 01:32:34;;;;;;;8.40;1.75;;;13.70;99.90;;;;;;5014131;28;20205;-64
2023/10/05 01:35:06;;;;;;;8.85;1.80;;;13.60;99.90;;;;;;5014346;28;20233;-64
2023/10/05 01:37:36;;;;;;;4.70;1.60;;;13.70;99.90;;;;;;5022984;28;20199;-64
2023/10/05 01:40:11;;;;;;;9.45;1.55;;;13.90;99.90;;;;;;5008326;28;20330;-64
2023/10/05 01:42:43;;;;;;;5.10;1.45;;;13.70;99.90;;;;;;5016846;28;20558;-64
2023/10/05 01:45:15;;;;;;;4.63;1.35;;;13.70;99.90;;;;;;4989269;28;20228;-64
2023/10/05 01:47:44;;;;;;;5.30;1.77;;;13.70;99.90;;;;;;5010271;28;20214;-64
2023/10/05 01:50:19;;;;;;;3.60;1.60;;;13.70;99.90;;;;;;5008002;28;20292;-63
2023/10/05 01:52:48;;;;;;;6.38;1.52;;;13.70;99.90;;;;;;5020621;28;20200;-64
2023/10/05 01:55:18;;;;;;;4.53;1.75;;;13.70;99.90;;;;;;5003878;28;20233;-64
2023/10/05 01:57:46;;;;;;;3.72;1.30;;;13.70;99.90;;;;;;5009213;28;20205;-64
2023/10/05 02:00:19;;;;;;;3.88;1.52;;;13.70;99.90;;;;;;4988428;28;20224;-64
2023/10/05 02:02:48;;;;;;;3.80;1.50;;;13.80;99.90;;;;;;5009460;28;20208;-64
2023/10/05 02:05:18;;;;;;;6.78;2.25;;;13.60;99.90;;;;;;5008707;28;20304;-64
2023/10/05 02:07:47;;;;;;;6.32;1.60;;;13.70;99.90;;;;;;5015616;28;20202;-64
2023/10/05 02:10:19;;;;;;;7.75;1.63;;;13.60;99.90;;;;;;5011648;28;20335;-64
2023/10/05 02:12:53;;;;;;;3.67;1.40;;;13.60;99.90;;;;;;5012668;28;20228;-64
2023/10/05 02:15:20;;;;;;;4.95;1.65;;;13.60;99.90;;;;;;5015662;28;20236;-63
2023/10/05 02:17:47;;;;;;;4.53;1.50;;;13.60;99.90;;;;;;4985293;28;20225;-63
2023/10/05 02:20:38;;;;;;;4.45;1.50;;;13.60;99.90;;;;;;5014810;28;20205;-63
2023/10/05 02:23:17;;;;;;;5.03;1.73;;;13.20;99.90;;;;;;5022571;28;20338;-64
2023/10/05 02:25:45;;;;;;;4.82;1.83;;;13.60;99.90;;;;;;5021164;28;20205;-64
2023/10/05 02:28:25;;;;;;;6.95;1.83;;;13.60;99.90;;;;;;4997036;28;20220;-64
2023/10/05 02:30:53;;;;;;;9.10;1.90;;;13.60;99.90;;;;;;4993477;28;20587;-64
2023/10/05 02:33:24;;;;;;;8.07;1.88;;;13.60;99.90;;;;;;4982020;28;20312;-64
2023/10/05 02:35:55;;;;;;;7.95;1.88;;;13.70;99.90;;;;;;5011610;28;20830;-64
2023/10/05 02:38:22;;;;;;;6.72;1.83;;;13.70;99.90;;;;;;5022746;28;20395;-64
2023/10/05 02:40:54;;;;;;;6.57;2.00;;;13.60;99.90;;;;;;5015726;28;20207;-64
2023/10/05 02:43:27;;;;;;;8.30;1.67;;;13.70;99.90;;;;;;5004947;28;20221;-64
2023/10/05 02:46:01;;;;;;;2.33;1.50;;;13.70;99.90;;;;;;5010639;28;20201;-64
2023/10/05 02:48:30;;;;;;;8.50;2.20;;;13.60;99.90;;;;;;4983936;28;20220;-63
2023/10/05 02:50:57;;;;;;;5.55;1.92;;;13.60;99.90;;;;;;5012018;28;20260;-64
2023/10/05 02:53:25;;;;;;;6.35;2.10;;;13.60;99.90;;;;;;5015663;28;20317;-64
2023/10/05 02:55:54;;;;;;;3.20;1.67;;;13.70;99.90;;;;;;5018876;28;20233;-63
2023/10/05 02:58:22;;;;;;;3.15;1.40;;;13.70;99.90;;;;;;5010659;28;20217;-64
2023/10/05 03:00:51;;;;;;;3.95;1.90;;;13.70;99.90;;;;;;5013227;28;20232;-64
2023/10/05 03:03:18;;;;;;;9.70;1.83;;;13.70;99.90;;;;;;4994083;28;20217;-64
2023/10/05 03:05:45;;;;;;;10.20;2.00;;;13.70;99.90;;;;;;4987982;28;20224;-64
2023/10/05 03:08:12;;;;;;;5.43;1.92;;;13.70;99.90;;;;;;5005540;28;20213;-64
2023/10/05 03:10:43;;;;;;;4.85;1.67;;;13.70;99.90;;;;;;5007944;28;20208;-64
2023/10/05 03:13:13;;;;;;;7.47;1.80;;;13.70;99.90;;;;;;5015289;28;20211;-64
2023/10/05 03:15:40;;;;;;;7.03;1.67;;;13.70;99.90;;;;;;5007358;28;20667;-64
2023/10/05 03:18:08;;;;;;;3.97;1.75;;;13.70;99.90;;;;;;5011982;28;20233;-64
2023/10/05 03:20:35;;;;;;;5.32;1.40;;;13.70;99.90;;;;;;4996234;28;20210;-64
2023/10/05 03:23:03;;;;;;;10.00;2.28;;;13.60;99.90;;;;;;5016154;28;20209;-64
2023/10/05 03:25:33;;;;;;;3.03;1.92;;;13.60;99.90;;;;;;5010258;28;20214;-64
2023/10/05 03:28:01;;;;;;;11.45;2.30;;;13.70;99.90;;;;;;5022093;28;20300;-64
2023/10/05 03:30:30;;;;;;;4.13;1.63;;;13.70;99.90;;;;;;5006078;28;20216;-64
2023/10/05 03:33:00;;;;;;;8.60;1.85;;;13.70;99.90;;;;;;5016992;28;20662;-64
2023/10/05 03:35:33;;;;;;;5.20;1.88;;;13.70;99.90;;;;;;4982177;28;20228;-64
2023/10/05 03:38:00;;;;;;;5.07;1.70;;;13.70;99.90;;;;;;5017182;28;20291;-64
2023/10/05 03:40:35;;;;;;;10.85;2.10;;;12.50;99.90;;;;;;5008167;28;20213;-64
2023/10/05 03:43:05;;;;;;;9.70;2.45;;;13.70;99.90;;;;;;5015674;28;20682;-64
2023/10/05 03:45:31;;;;;;;5.30;2.10;;;13.30;99.90;;;;;;5000936;28;23105;-64
2023/10/05 03:47:58;;;;;;;4.78;1.67;;;13.60;99.90;;;;;;5008736;28;21931;-64
2023/10/05 03:50:25;;;;;;;9.70;2.28;;;13.70;99.90;;;;;;4981468;28;20220;-64
2023/10/05 03:52:54;;;;;;;5.50;1.77;;;13.70;99.90;;;;;;5018601;28;20202;-64
2023/10/05 03:55:20;;;;;;;7.88;1.92;;;13.70;99.90;;;;;;5012661;28;20874;-64
2023/10/05 03:57:48;;;;;;;7.30;2.00;;;13.70;99.90;;;;;;4998934;28;20221;-64
2023/10/05 04:00:23;;;;;;;6.35;1.90;;;13.70;99.90;;;;;;5007778;28;20978;-64
2023/10/05 04:02:52;;;;;;;6.80;1.60;;;13.70;99.90;;;;;;5020058;28;20313;-64
2023/10/05 04:05:20;;;;;;;5.90;1.67;;;13.80;99.90;;;;;;4990579;28;20236;-66
2023/10/05 04:07:49;;;;;;;4.93;1.48;;;13.70;99.90;;;;;;5018908;28;20200;-64
2023/10/05 04:10:23;;;;;;;11.85;2.17;;;13.70;99.90;;;;;;5022010;28;20964;-64
2023/10/05 04:12:51;;;;;;;8.77;2.15;;;13.70;99.90;;;;;;5014156;28;20208;-64
2023/10/05 04:15:20;;;;;;;7.57;1.92;;;13.60;99.90;;;;;;5018803;28;20229;-64
2023/10/05 04:17:49;;;;;;;3.88;1.35;;;13.60;99.90;;;;;;5013671;28;20682;-64
2023/10/05 04:20:19;;;;;;;5.20;1.88;;;15.60;99.90;;;;;;5000832;28;20208;-64
2023/10/05 04:22:49;;;;;;;8.98;2.10;;;13.70;99.90;;;;;;5012066;28;20244;-63
2023/10/05 04:25:17;;;;;;;5.28;1.73;;;13.70;99.90;;;;;;5020562;28;20221;-65
2023/10/05 04:27:46;;;;;;;5.05;1.70;;;13.60;99.90;;;;;;5012241;28;20214;-63
2023/10/05 04:30:21;;;;;;;7.43;2.03;;;13.40;99.90;;;;;;5016621;28;20201;-64
2023/10/05 04:32:48;;;;;;;7.63;1.75;;;13.60;99.90;;;;;;5010874;28;20290;-64
2023/10/05 04:35:26;;;;;;;7.65;1.92;;;12.90;99.90;;;;;;5015622;28;20244;-64
2023/10/05 04:37:54;;;;;;;5.68;2.40;;;13.60;99.90;;;;;;4979167;28;20217;-63
2023/10/05 04:40:24;;;;;;;8.48;2.15;;;13.60;99.90;;;;;;4998444;28;20221;-64
2023/10/05 04:42:51;;;;;;;5.15;2.20;;;13.60;99.90;;;;;;5009372;28;20383;-64
2023/10/05 04:45:20;;;;;;;6.43;1.80;;;13.60;99.90;;;;;;5008601;28;20205;-64
2023/10/05 04:47:48;;;;;;;4.90;1.90;;;13.50;99.90;;;;;;4998570;28;20240;-65
2023/10/05 04:50:17;;;;;;;7.57;1.50;;;13.60;99.90;;;;;;5011306;28;20206;-64
2023/10/05 04:52:45;;;;;;;7.38;1.70;;;13.60;99.90;;;;;;4981707;28;20383;-64
2023/10/05 04:55:18;;;;;;;7.78;2.17;;;13.60;99.90;;;;;;5012007;28;20286;-64
2023/10/05 04:57:55;;;;;;;2.90;1.52;;;13.60;99.90;;;;;;5013379;28;20309;-64
2023/10/05 05:03:33;;;;;;;4.85;1.73;;;13.30;99.90;;;;;;5004002;28;20672;-64
2023/10/05 05:06:10;;;;;;;8.80;2.13;;;13.70;99.90;;;;;;5002186;28;20295;-63
2023/10/05 05:08:38;;;;;;;10.70;2.20;;;13.60;99.90;;;;;;4981449;28;20236;-64
2023/10/05 05:11:08;;;;;;;7.05;2.13;;;13.80;99.90;;;;;;5015397;28;20205;-63
2023/10/05 05:13:38;;;;;;;5.82;2.08;;;13.40;99.90;;;;;;5005425;28;20330;-63
2023/10/05 05:16:05;;;;;;;4.43;1.60;;;13.50;99.90;;;;;;5016121;28;20241;-63
2023/10/05 05:18:32;;;;;;;5.63;2.17;;;12.50;99.90;;;;;;5008300;28;20687;-63
2023/10/05 05:20:59;;;;;;;6.28;1.65;;;13.50;99.90;;;;;;5008726;28;20201;-63
2023/10/05 05:23:26;;;;;;;4.28;1.70;;;13.50;99.90;;;;;;4985212;28;21587;-63
2023/10/05 05:25:54;;;;;;;6.93;1.92;;;13.50;99.90;;;;;;5018889;28;20629;-63
2023/10/05 05:28:21;;;;;;;7.13;2.25;;;13.50;99.90;;;;;;5027752;28;20292;-63
2023/10/05 05:30:50;;;;;;;7.90;1.83;;;13.80;99.90;;;;;;5008536;28;20216;-63
2023/10/05 05:33:17;;;;;;;7.13;2.03;;;13.50;99.90;;;;;;5014145;28;20213;-63
2023/10/05 05:35:44;;;;;;;3.78;1.98;;;13.50;99.90;;;;;;5009987;28;20733;-63
2023/10/05 05:38:11;;;;;;;7.30;2.40;;;13.50;99.90;;;;;;5009931;28;20209;-63
2023/10/05 05:40:38;;;;;;;7.03;1.77;;;13.50;99.90;;;;;;4988214;28;20252;-62
2023/10/05 05:43:08;;;;;;;10.77;2.33;;;13.50;99.90;;;;;;5007413;28;20221;-64
2023/10/05 05:45:39;;;;;;;6.18;2.08;;;13.50;99.90;;;;;;5009997;28;20291;-63
2023/10/05 05:48:09;;;;;;;5.55;2.22;;;13.60;99.90;;;;;;4999013;28;21558;-63
2023/10/05 05:50:39;;;;;;;6.88;1.77;;;13.60;99.90;;;;;;5014938;28;20975;-62
2023/10/05 05:53:11;;;;;;;4.50;2.38;;;13.60;99.90;;;;;;5000645;28;20225;-63
2023/10/05 05:55:40;;;;;;;6.25;1.83;;;13.20;99.90;;;;;;4984523;28;20588;-62
2023/10/05 05:58:08;;;;;;;3.70;1.83;;;13.70;99.90;;;;;;5005928;28;20248;-63
2023/10/05 06:00:35;;;;;;;6.03;1.77;;;13.70;99.90;;;;;;5013378;28;20690;-63
2023/10/05 06:03:02;;;;;;;8.45;2.08;;;13.70;99.90;;;;;;4996464;28;20221;-62
2023/10/05 06:05:30;;;;;;;3.85;1.50;;;13.70;99.90;;;;;;5013367;28;20213;-62
2023/10/05 06:08:00;;;;;;;6.18;1.80;;;13.80;99.90;;;;;;5008944;28;21296;-63
2023/10/05 06:10:34;;;;;;;8.50;2.28;;;13.80;99.90;;;;;;4988908;28;20221;-63
2023/10/05 06:13:01;;;;;;;6.72;2.13;;;13.80;99.90;;;;;;5004598;28;20938;-62
2023/10/05 06:15:29;;;;;;;4.30;1.73;;;13.80;99.90;;;;;;5017464;28;20884;-63
2023/10/05 06:17:59;;;;;;;8.57;1.73;;;;;;;;;;5010291;28;20206;-63
2023/10/05 06:20:26;;;;;;;4.28;1.63;;;13.80;99.90;;;;;;5013544;28;20299;-63
2023/10/05 06:22:54;;;;;;;7.65;2.50;;;13.80;99.90;;;;;;5010833;28;20204;-63
2023/10/05 06:25:21;;;;;;;4.85;1.70;;;13.80;99.90;;;;;;5011768;28;20271;-63
2023/10/05 06:27:48;;;;;;;9.05;1.80;;;14.10;99.90;;;;;;4971423;28;20237;-63
2023/10/05 06:30:15;;;;;;;7.43;2.10;;;13.80;99.90;;;;;;5000635;28;20324;-62
2023/10/05 06:32:43;;;;;;;5.97;1.67;;;13.80;99.90;;;;;;5002717;28;20225;-63
2023/10/05 06:35:12;;;;;;;7.22;1.83;;;13.90;99.90;;;;;;4995780;28;20709;-63
2023/10/05 06:37:39;;;;;;;8.73;2.30;;;13.90;99.90;;;;;;4992787;28;23594;-63
2023/10/05 06:40:12;;;;;;;9.10;2.05;;;;;;;;;;5004940;28;25041;-63
2023/10/05 06:42:41;;;;;;;6.78;2.15;;;;;;;;;;4972771;28;20684;-62
2023/10/05 06:45:09;;;;;;;9.75;2.28;;;14.10;99.90;;;;;;5003423;28;20221;-63
2023/10/05 06:47:37;;;;;;;7.78;1.77;;;14.60;99.90;;;;;;5003874;28;20248;-63
2023/10/05 06:50:08;;;;;;;8.57;2.25;;;14.10;99.90;;;;;;5016781;28;20221;-62
2023/10/05 06:52:39;;;;;;;6.00;1.90;;;14.20;99.90;;;;;;4998376;28;20229;-63
2023/10/05 06:55:08;;;;;;;6.10;1.95;;;13.50;99.90;;;;;;5014214;28;20229;-63
2023/10/05 06:57:36;;;;;;;9.65;2.35;;;14.20;99.90;;;;;;4972665;28;20236;-63
2023/10/05 07:00:16;;;;;;;15.82;2.95;;;14.20;99.90;;;;;;5007266;28;20226;-63
2023/10/05 07:02:44;;;;;;;9.43;2.03;;;14.20;99.90;;;;;;5003399;28;21581;-63
2023/10/05 07:05:13;;;;;;;7.22;2.33;;;14.20;99.90;;;;;;5021336;28;20206;-63
2023/10/05 07:07:42;;;;;;;7.55;2.70;;;14.30;99.90;;;;;;5004001;28;20225;-62
2023/10/05 07:10:13;;;;;;;4.22;1.70;;;14.30;99.90;;;;;;5011129;28;20221;-63
2023/10/05 07:12:41;;;;;;;8.38;2.15;;;;;;;;;;4985264;28;20260;-62
2023/10/05 07:15:09;;;;;;;3.30;1.70;;;14.20;99.90;;;;;;5009846;28;21028;-62
2023/10/05 07:17:37;;;;;;;9.48;2.55;;;;;;;;;;4994488;28;20225;-62
2023/10/05 07:20:05;;;;;;;8.55;2.15;;;14.40;99.90;;;;;;5019509;28;20217;-63
2023/10/05 07:22:31;;;;;;;3.80;1.83;;;14.40;99.90;;;;;;5001753;28;20725;-62
2023/10/05 07:24:59;;;;;;;8.60;2.45;;;14.40;99.90;;;;;;4997279;28;20226;-62
2023/10/05 07:27:27;;;;;;;6.72;2.28;;;14.40;99.90;;;;;;5004378;28;21782;-63
2023/10/05 07:29:54;;;;;;;7.43;2.92;;;14.20;99.90;;;;;;4979137;28;20313;-63
2023/10/05 07:32:21;;;;;;;11.15;2.50;;;14.10;99.90;;;;;;5003659;28;20224;-63
2023/10/05 07:34:48;;;;;;;9.73;2.15;;;13.70;99.90;;;;;;5004465;28;20213;-63
2023/10/05 07:37:15;;;;;;;11.05;4.82;;;14.50;99.90;;;;;;5005526;28;20240;-64
2023/10/05 07:39:43;;;;;;;10.25;2.13;;;14.40;99.90;;;;;;4999591;28;20985;-63
2023/10/05 07:42:10;;;;;;;12.57;2.40;;;;;;;;;;5010459;28;20213;-63
2023/10/05 07:44:39;;;;;;;9.00;2.22;;;14.50;99.90;;;;;;4987175;28;20225;-62
2023/10/05 07:47:07;;;;;;;3.05;2.03;;;14.50;99.90;;;;;;5021221;28;20727;-63
2023/10/05 07:49:35;;;;;;;9.20;2.80;;;14.50;99.90;;;;;;5007931;28;20209;-63
2023/10/05 07:52:03;;;;;;;7.63;1.77;;;14.30;99.90;;;;;;5017650;28;20284;-62
2023/10/05 07:54:31;;;;;;;10.18;2.42;;;14.30;99.90;;;;;;5000122;28;21458;-63
2023/10/05 07:57:00;;;;;;;10.32;2.53;;;14.20;99.90;;;;;;5010773;28;20232;-63
2023/10/05 07:59:28;;;;;;;9.25;2.38;;;14.30;99.90;;;;;;5009243;28;20217;-63
2023/10/05 08:01:56;;;;;;;4.47;1.73;;;14.30;99.90;;;;;;4989977;28;20790;-63
2023/10/05 08:04:23;;;;;;;9.00;2.05;;;14.20;99.90;;;;;;5005518;28;20240;-63
2023/10/05 08:06:50;;;;;;;5.53;1.90;;;14.20;99.90;;;;;;5011861;28;20200;-63
2023/10/05 08:09:20;;;;;;;7.03;2.03;;;14.50;99.90;;;;;;5001570;28;20216;-63
2023/10/05 08:11:47;;;;;;;11.45;2.92;;;14.20;99.90;;;;;;5022160;28;20221;-63
2023/10/05 08:14:14;;;;;;;6.43;2.47;;;14.20;99.90;;;;;;5004010;28;20208;-63
2023/10/05 08:16:44;;;;;;;14.48;2.47;;;14.30;99.90;;;;;;4979161;28;20303;-63
2023/10/05 08:19:12;;;;;;;8.02;2.53;;;14.30;99.90;;;;;;4989112;28;20232;-63
2023/10/05 08:21:40;;;;;;;13.13;2.80;;;14.90;99.90;;;;;;5012541;28;20730;-63
2023/10/05 08:24:07;;;;;;;7.60;2.55;;;14.30;99.90;;;;;;5013055;28;20311;-63
2023/10/05 08:26:34;;;;;;;13.45;3.10;;;11.40;99.90;;;;;;4997504;28;20315;-63
2023/10/05 08:29:01;;;;;;;8.85;2.13;;;14.30;99.90;;;;;;5011616;28;20205;-63
2023/10/05 08:31:28;;;;;;;5.15;2.40;;;14.30;99.90;;;;;;4981123;28;20266;-64
2023/10/05 08:33:55;;;;;;;9.60;3.67;;;14.20;99.90;;;;;;5021045;28;20671;-63
2023/10/05 08:36:25;;;;;;;14.93;8.63;;;14.30;99.90;;;;;;5005676;28;20232;-63
2023/10/05 08:38:54;;;;;;;34.40;18.73;;;14.30;99.90;;;;;;5020988;28;20658;-63
2023/10/05 08:41:31;;;;;;;13.10;3.25;;;14.30;99.90;;;;;;5003289;28;20201;-63
2023/10/05 08:43:59;;;;;;;10.70;2.95;;;14.30;99.90;;;;;;5019410;28;20221;-63
2023/10/05 08:46:26;;;;;;;4.60;2.05;;;14.40;99.90;;;;;;5014060;28;20206;-64
2023/10/05 08:48:55;;;;;;;6.25;2.10;;;14.50;99.90;;;;;;4994803;28;20341;-63
2023/10/05 08:51:24;;;;;;;8.32;1.90;;;14.50;99.90;;;;;;5007684;28;20206;-63
2023/10/05 08:53:55;;;;;;;5.78;2.35;;;14.40;99.90;;;;;;5019596;28;21303;-63
2023/10/05 08:56:22;;;;;;;6.97;1.80;;;14.40;99.90;;;;;;5006981;28;20234;-63
2023/10/05 08:58:52;;;;;;;8.40;2.03;;;14.50;99.90;;;;;;5010597;28;20206;-63
2023/10/05 09:01:27;;;;;;;9.52;2.22;;;14.30;99.90;;;;;;5022660;28;20194;-63
2023/10/05 09:04:01;;;;;;;6.80;2.38;;;14.50;99.90;;;;;;4989595;28;20303;-63
2023/10/05 09:06:30;;;;;;;3.50;1.60;;;14.50;99.90;;;;;;5005641;28;20205;-63
2023/10/05 09:09:13;;;;;;;4.35;2.10;;;14.60;99.90;;;;;;5021490;28;20210;-64
2023/10/05 09:11:40;;;;;;;7.32;2.40;;;14.60;99.90;;;;;;5007738;28;20213;-64
2023/10/05 09:14:17;;;;;;;5.75;2.13;;;14.60;99.90;;;;;;5010925;28;20206;-63
2023/10/05 09:16:46;;;;;;;12.52;2.13;;;14.60;99.90;;;;;;5018084;28;20245;-63
2023/10/05 09:19:17;;;;;;;9.25;1.92;;;14.70;99.90;;;;;;4996529;28;20558;-63
2023/10/05 09:21:50;;;;;;;13.70;2.42;;;14.70;99.90;;;;;;5020273;28;20221;-63
2023/10/05 09:24:21;;;;;;;11.70;2.22;;;14.80;99.90;;;;;;5006353;28;20858;-63
2023/10/05 09:26:52;;;;;;;7.28;1.83;;;14.90;99.90;;;;;;4997476;28;20282;-63
2023/10/05 09:29:21;;;;;;;6.65;2.00;;;14.80;99.90;;;;;;5006683;28;20877;-63
2023/10/05 09:31:50;;;;;;;8.40;2.88;;;14.90;99.90;;;;;;5018351;28;20206;-64
2023/10/05 09:34:20;;;;;;;11.32;7.05;;;14.90;99.90;;;;;;5017813;28;20813;-63
2023/10/05 09:36:53;;;;;;;6.03;1.92;;;14.80;99.90;;;;;;4985724;28;20760;-64
2023/10/05 09:39:22;;;;;;;3.38;1.90;;;14.80;99.90;;;;;;5006490;28;20203;-63
2023/10/05 09:41:51;;;;;;;7.97;2.00;;;15.20;99.90;;;;;;5003444;28;20224;-63
2023/10/05 09:44:19;;;;;;;6.78;2.03;;;14.90;99.90;;;;;;5007817;28;20715;-64
2023/10/05 09:46:49;;;;;;;4.35;1.52;;;14.90;99.90;;;;;;5019463;28;20670;-63
2023/10/05 09:49:17;;;;;;;4.53;1.40;;;14.80;99.90;;;;;;5013663;28;21650;-64
2023/10/05 09:51:48;;;;;;;3.78;1.45;;;14.80;99.90;;;;;;4974833;28;20218;-63
2023/10/05 09:54:19;;;;;;;20.42;10.27;;;14.80;99.90;;;;;;5004134;28;21240;-64
2023/10/05 09:56:47;;;;;;;13.70;8.23;;;14.90;99.90;;;;;;4982876;28;20303;-64
2023/10/05 09:59:16;;;;;;;7.32;3.65;;;14.90;99.90;;;;;;4999230;28;20639;-64
2023/10/05 10:01:48;;;;;;;2.97;1.70;;;14.90;99.90;;;;;;5016645;28;20267;-64
2023/10/05 10:04:34;;;;;;;1.17;0.88;;;15.70;99.90;;;;;;4983042;28;20221;-63
2023/10/05 10:07:15;;;;;;;2.50;1.00;;;14.90;99.90;;;;;;4975810;28;20226;-63
2023/10/05 10:09:46;;;;;;;36.33;19.45;;;14.90;99.90;;;;;;4997831;28;20579;-63
2023/10/05 10:12:25;;;;;;;5.22;3.42;;;15.00;99.90;;;;;;4997537;28;20213;-63
2023/10/05 10:14:52;;;;;;;4.22;1.20;;;15.00;99.90;;;;;;5010233;28;20213;-63
2023/10/05 10:17:27;;;;;;;4.68;1.40;;;14.80;99.90;;;;;;5004050;28;20237;-64
2023/10/05 10:20:13;;;;;;;3.58;1.65;;;15.00;99.90;;;;;;5012984;28;20202;-64
2023/10/05 10:22:53;;;;;;;6.97;1.55;;;15.10;99.90;;;;;;4991502;28;20236;-64
2023/10/05 10:25:31;;;;;;;3.08;1.23;;;15.20;99.90;;;;;;4996085;28;20347;-63
2023/10/05 10:28:20;;;;;;;4.07;1.70;;;15.20;99.90;;;;;;5005935;28;20805;-64
2023/10/05 10:31:13;;;;;;;4.68;1.30;;;15.20;99.90;;;;;;5006931;28;20210;-63
2023/10/05 10:33:41;;;;;;;5.35;2.00;;;15.10;99.90;;;;;;5016997;28;20705;-64
2023/10/05 10:36:18;;;;;;;3.65;1.38;;;15.20;99.90;;;;;;4997844;28;20221;-63
2023/10/05 10:38:46;;;;;;;3.33;1.40;;;15.20;99.90;;;;;;5010298;28;20228;-63
2023/10/05 10:41:16;;;;;;;3.20;1.30;;;15.30;99.90;;;;;;4990576;28;20194;-63
2023/10/05 10:43:49;;;;;;;5.18;1.95;;;15.20;99.90;;;;;;5019811;28;20202;-63
2023/10/05 10:46:21;;;;;;;7.38;1.70;;;15.30;99.90;;;;;;5005185;28;20217;-63
2023/10/05 10:48:57;;;;;;;4.60;1.77;;;15.30;99.90;;;;;;5015140;28;20319;-63
2023/10/05 10:51:24;;;;;;;4.70;1.35;;;15.30;99.90;;;;;;5014937;28;20193;-63
2023/10/05 10:53:56;;;;;;;4.63;1.80;;;15.30;99.90;;;;;;4983868;28;20205;-63
2023/10/05 10:56:34;;;;;;;6.70;1.40;;;15.40;99.90;;;;;;5006588;28;20233;-63
2023/10/05 10:59:11;;;;;;;6.40;1.55;;;15.50;99.90;;;;;;4997901;28;20221;-63
2023/10/05 11:01:53;;;;;;;4.93;1.25;;;15.40;99.90;;;;;;5013726;28;20702;-63
2023/10/05 11:04:26;;;;;;;4.28;1.30;;;15.40;99.90;;;;;;5007095;28;20212;-63
2023/10/05 11:06:56;;;;;;;4.38;1.25;;;15.50;99.90;;;;;;5019096;28;20209;-64
2023/10/05 11:09:34;;;;;;;5.53;1.35;;;15.40;99.90;;;;;;4976620;28;20217;-63
2023/10/05 11:12:11;;;;;;;7.38;1.60;;;15.60;99.90;;;;;;5006385;28;20197;-63
2023/10/05 11:14:41;;;;;;;10.88;1.92;;;15.60;99.90;;;;;;4992003;28;20286;-63
2023/10/05 11:17:28;;;;;;;13.23;2.63;;;15.60;99.90;;;;;;4957494;28;20311;-63
2023/10/05 11:19:55;;;;;;;3.90;1.50;;;15.60;99.90;;;;;;4967629;28;20869;-63
2023/10/05 11:22:29;;;;;;;3.75;1.50;;;15.60;99.90;;;;;;5002651;28;20225;-63
2023/10/05 11:25:14;;;;;;;6.53;1.80;;;15.70;99.90;;;;;;4949999;28;20213;-63
2023/10/05 11:27:54;;;;;;;3.65;1.20;;;15.60;99.90;;;;;;4984024;28;20622;-63
2023/10/05 11:30:24;;;;;;;3.95;1.35;;;15.60;99.90;;;;;;4974526;28;20201;-63
2023/10/05 11:32:55;;;;;;;6.68;1.33;;;15.70;99.90;;;;;;5000757;28;20655;-63
2023/10/05 11:35:29;;;;;;;4.95;1.33;;;16.00;99.90;;;;;;4969647;28;21424;-64
2023/10/05 11:38:03;;;;;;;4.35;1.67;;;16.10;99.90;;;;;;5004404;28;20229;-63
2023/10/05 11:40:34;;;;;;;3.80;1.30;;;16.20;99.90;;;;;;4963519;28;20216;-64
2023/10/05 11:43:06;;;;;;;2.30;0.98;;;16.10;99.90;;;;;;4999222;28;20222;-63
2023/10/05 11:45:34;;;;;;;6.55;1.48;;;16.10;99.90;;;;;;4983644;28;20198;-64
2023/10/05 11:48:11;;;;;;;5.38;1.42;;;16.10;99.90;;;;;;5002863;28;20222;-63
2023/10/05 11:50:50;;;;;;;2.22;1.17;;;16.20;99.90;;;;;;4991869;28;20291;-63
2023/10/05 11:53:20;;;;;;;4.38;1.30;;;16.20;99.90;;;;;;4995676;28;20752;-63
2023/10/05 11:55:49;;;;;;;9.70;1.60;;;16.20;99.90;;;;;;4976465;28;20220;-63
2023/10/05 11:58:18;;;;;;;4.05;1.27;;;16.20;99.90;;;;;;4993607;28;20320;-63
2023/10/05 12:00:45;;;;;;;7.13;1.50;;;16.30;99.90;;;;;;5004215;28;20212;-63
2023/10/05 12:03:16;;;;;;;2.33;1.10;;;16.30;99.90;;;;;;5016530;28;21686;-63
2023/10/05 12:05:43;;;;;;;4.82;1.27;;;16.60;99.90;;;;;;4979519;28;20224;-63
2023/10/05 12:08:12;;;;;;;2.75;0.88;;;16.30;99.90;;;;;;4995191;28;20237;-63
2023/10/05 12:10:41;;;;;;;6.68;1.17;;;17.00;99.90;;;;;;4980942;28;20283;-62
2023/10/05 12:13:08;;;;;;;5.53;1.25;;;16.10;99.90;;;;;;4991313;28;20316;-63
2023/10/05 12:15:36;;;;;;;3.45;1.20;;;16.20;99.90;;;;;;5004312;28;20232;-63
2023/10/05 12:18:12;;;;;;;2.88;1.17;;;16.20;99.90;;;;;;5001767;28;20348;-63
2023/10/05 12:20:41;;;;;;;3.25;1.27;;;16.30;99.90;;;;;;4994224;28;20207;-63
2023/10/05 12:23:10;;;;;;;5.35;1.30;;;16.60;99.90;;;;;;5004482;28;21069;-62
2023/10/05 12:25:37;;;;;;;4.85;1.05;;;16.60;99.90;;;;;;4987972;28;20206;-63
2023/10/05 12:28:05;;;;;;;5.55;1.10;;;16.70;99.90;;;;;;4972524;28;20546;-63
2023/10/05 12:30:32;;;;;;;4.95;1.60;;;16.70;99.90;;;;;;5000742;28;20340;-63
2023/10/05 12:33:00;;;;;;;3.53;1.30;;;16.80;99.90;;;;;;5019227;28;20513;-63
2023/10/05 12:35:29;;;;;;;2.63;0.90;;;16.90;99.90;;;;;;5011018;28;20212;-62
2023/10/05 12:37:58;;;;;;;5.68;1.45;;;16.80;99.90;;;;;;5001196;28;20230;-63
2023/10/05 12:40:33;;;;;;;4.13;1.15;;;16.80;99.90;;;;;;4979300;28;20860;-63
2023/10/05 12:43:00;;;;;;;5.38;1.20;;;16.90;99.90;;;;;;4973006;28;20208;-63
2023/10/05 12:45:28;;;;;;;5.68;1.90;;;16.60;99.90;;;;;;5000981;28;20226;-64
2023/10/05 12:47:55;;;;;;;6.28;1.38;;;16.00;99.90;;;;;;5015527;28;24669;-62
2023/10/05 12:50:26;;;;;;;4.53;1.10;;;16.80;99.90;;;;;;5002209;28;20715;-63
2023/10/05 12:52:53;;;;;;;5.38;1.50;;;16.40;99.90;;;;;;5017320;28;20235;-63
2023/10/05 12:55:22;;;;;;;4.50;1.45;;;16.70;99.90;;;;;;5021169;28;20288;-62
2023/10/05 12:57:50;;;;;;;6.97;1.20;;;16.40;99.90;;;;;;4983260;28;20379;-63
2023/10/05 13:00:25;;;;;;;6.78;1.70;;;16.40;99.90;;;;;;4999736;28;20451;-62
2023/10/05 13:02:53;;;;;;;4.97;1.40;;;16.40;99.90;;;;;;5005789;28;20204;-63
2023/10/05 13:05:22;;;;;;;7.45;1.23;;;16.30;99.90;;;;;;5003442;28;20531;-63
2023/10/05 13:07:53;;;;;;;5.32;1.40;;;16.40;99.90;;;;;;5022587;28;20627;-62